메인 페이지
METAR-TAF:

METAR-TAF

공항 :

이바토 공항

안타나나리보, 마다가스카르

위도: 18-48S, 경도: 047-29E, 고도: 1279m

현재 날씨관측

예보는 44분 전, 09:00시(UTC)에 발표되었습니다.
동남동15kt
온도 21°C
습도 60%
기압 1026 hPa
시정 10km 이상
고도 2000ft 상공 구름 보통
고도 2300ft 상공 구름 보통

METAR: FMMI 130900Z 12015KT 9999 SCT020 SCT023 21/13 Q1026 NOSIG

시각: 12:44 (09:44 UTC)

예보

예보는 4 시간 44분 전, 05:00시(UTC)에 발표되었습니다.
예보 대상 시간: 13일 06시부터 14일 12시까지 (UTC)
남동11kt
시정 10km 이상
고도 1000ft 상공 구름 조금
고도 2000ft 상공 구름 많음

TAF: FMMI 130500Z 1306/1412 14011KT 9999 FEW010 BKN020

4,000개 이상의 공항 관측 자료 및 예보 (METAR 및 TAF 보고).

지도상에서 검색 가능한 기상관측소가 노란 점과 빨간 점으로 표시되어 있습니다.

기상관측소 명을 보려면 표시 위로 마우스를 이동하세요.

날씨 관측과 예보를 보려면 클릭하세요.

지도 변경 : 확대하려면 엑스 표시가 있는 녹색 버튼, 축소하려면 빼기 표시가 있는 녹색 버튼, 다음 페이지의 지도를 보려면 녹색 화살표를 클릭하세요.


METAR-TAF: